createdAt,value
2019-02-21T00:00:59.105Z,81.83
2019-02-21T00:04:06.748Z,99.47
2019-02-21T00:07:14.429Z,74.73
2019-02-21T00:10:21.987Z,91.93
2019-02-21T00:13:32.878Z,91.33
2019-02-21T00:16:40.699Z,95.00
2019-02-21T00:19:48.514Z,98.03
2019-02-21T00:22:56.272Z,73.80
2019-02-21T00:26:04.429Z,69.70
2019-02-21T00:29:12.136Z,62.90
2019-02-21T00:32:19.627Z,54.13
2019-02-21T00:35:27.480Z,55.47
2019-02-21T00:38:35.378Z,49.27
2019-02-21T00:41:43.254Z,50.47
2019-02-21T00:44:51.080Z,48.63
2019-02-21T00:47:59.004Z,44.00
2019-02-21T00:51:07.938Z,44.40
2019-02-21T00:54:15.844Z,57.43
2019-02-21T00:57:23.472Z,56.93
2019-02-21T01:00:31.024Z,62.83
2019-02-21T01:03:38.754Z,80.40
2019-02-21T01:06:46.550Z,100.23
2019-02-21T01:09:54.288Z,141.67
2019-02-21T01:13:02.958Z,148.57
2019-02-21T01:16:10.522Z,126.80
2019-02-21T01:19:18.186Z,133.73
2019-02-21T01:22:25.822Z,152.03
2019-02-21T01:25:33.646Z,118.53
2019-02-21T01:28:41.216Z,120.60
2019-02-21T01:31:49.086Z,101.73
2019-02-21T01:34:56.876Z,117.93
2019-02-21T01:38:04.874Z,91.63
2019-02-21T01:41:12.515Z,93.43
2019-02-21T01:44:20.031Z,96.67
2019-02-21T01:47:27.566Z,90.40
2019-02-21T01:50:36.302Z,100.30
2019-02-21T01:53:43.800Z,88.63
2019-02-21T01:56:52.724Z,83.63
2019-02-21T02:00:00.351Z,99.23
2019-02-21T02:03:08.058Z,93.83
2019-02-21T02:06:15.627Z,96.33
2019-02-21T02:09:23.216Z,93.70
2019-02-21T02:12:31.020Z,88.87
2019-02-21T02:15:38.500Z,90.80
2019-02-21T02:18:46.124Z,92.27
2019-02-21T02:21:53.875Z,88.07
2019-02-21T02:25:01.429Z,87.63
2019-02-21T02:28:09.052Z,89.43
2019-02-21T02:31:22.859Z,88.50
2019-02-21T02:34:26.102Z,83.57
2019-02-21T02:37:33.700Z,91.53
2019-02-21T02:40:41.606Z,97.63
2019-02-21T02:43:49.232Z,93.20
2019-02-21T02:46:56.822Z,98.23
2019-02-21T02:50:06.052Z,112.57
2019-02-21T02:53:14.381Z,79.00
2019-02-21T02:56:22.285Z,89.93
2019-02-21T02:59:40.303Z,96.17
2019-02-21T03:02:39.536Z,102.03
2019-02-21T03:05:48.857Z,96.70
2019-02-21T03:08:58.009Z,89.53
2019-02-21T03:12:05.697Z,94.00
2019-02-21T03:15:14.171Z,70.00
2019-02-21T03:18:21.859Z,82.27
2019-02-21T03:21:29.516Z,82.90
2019-02-21T03:24:37.057Z,77.40
2019-02-21T03:27:44.637Z,73.97
2019-02-21T03:30:52.359Z,66.03
2019-02-21T03:33:59.911Z,64.17
2019-02-21T03:37:07.481Z,70.10
2019-02-21T03:40:15.120Z,64.67
2019-02-21T03:43:24.103Z,63.43
2019-02-21T03:46:31.665Z,61.87
2019-02-21T03:49:39.314Z,59.13
2019-02-21T03:52:46.878Z,53.90
2019-02-21T03:55:54.435Z,59.97
2019-02-21T03:59:01.997Z,65.97
2019-02-21T04:02:09.491Z,57.20
2019-02-21T04:05:16.962Z,54.03
2019-02-21T04:08:24.704Z,52.57
2019-02-21T04:11:32.478Z,53.97
2019-02-21T04:14:40.246Z,61.23
2019-02-21T04:17:47.864Z,72.73
2019-02-21T04:20:57.072Z,74.23
2019-02-21T04:24:04.974Z,67.10
2019-02-21T04:27:12.515Z,73.60
2019-02-21T04:30:20.048Z,64.40
2019-02-21T04:33:27.682Z,61.13
2019-02-21T04:36:35.178Z,65.23
2019-02-21T04:39:42.814Z,63.27
2019-02-21T04:42:50.326Z,59.83
2019-02-21T04:45:57.868Z,66.90
2019-02-21T04:49:05.505Z,67.60
2019-02-21T04:52:13.114Z,59.90
2019-02-21T04:55:20.655Z,71.00
2019-02-21T04:58:28.360Z,96.80
2019-02-21T05:01:36.075Z,121.87
2019-02-21T05:04:43.708Z,127.57
2019-02-21T05:07:51.251Z,101.37
2019-02-21T05:10:58.812Z,93.70
2019-02-21T05:14:07.568Z,95.73
2019-02-21T05:17:15.188Z,87.03
2019-02-21T05:20:22.792Z,85.57
2019-02-21T05:23:30.388Z,84.40
2019-02-21T05:26:44.806Z,68.47
2019-02-21T05:29:52.430Z,75.70
2019-02-21T05:33:05.632Z,56.83
2019-02-21T05:36:32.116Z,71.63
2019-02-21T05:39:58.656Z,73.83
2019-02-21T05:43:30.867Z,71.50
2019-02-21T05:46:51.714Z,81.23
2019-02-21T05:50:12.994Z,71.93
2019-02-21T05:53:26.940Z,97.20
2019-02-21T05:56:56.447Z,85.50
2019-02-21T06:00:22.279Z,85.70
2019-02-21T06:04:01.114Z,84.17
2019-02-21T06:07:19.634Z,82.37
2019-02-21T06:10:46.064Z,80.03
2019-02-21T06:14:02.269Z,78.43
2019-02-21T06:17:28.614Z,73.70
2019-02-21T06:20:57.508Z,69.93
2019-02-21T06:24:11.218Z,68.40
2019-02-21T06:27:46.675Z,90.67
2019-02-21T06:31:06.811Z,112.13
2019-02-21T06:34:14.685Z,153.23
2019-02-21T06:37:22.399Z,170.87
2019-02-21T06:40:30.099Z,131.57
2019-02-21T06:43:37.844Z,121.00
2019-02-21T06:46:45.594Z,83.23
2019-02-21T06:49:53.210Z,61.23
2019-02-21T06:53:00.954Z,60.03
2019-02-21T06:56:08.909Z,64.10
2019-02-21T06:59:16.795Z,64.43
2019-02-21T07:02:27.936Z,78.17
2019-02-21T07:05:36.882Z,79.17
2019-02-21T07:08:44.307Z,68.17
2019-02-21T07:11:52.384Z,79.53
2019-02-21T07:15:00.876Z,77.13
2019-02-21T07:18:11.088Z,72.00
2019-02-21T07:21:18.797Z,78.73
2019-02-21T07:24:27.107Z,79.90
2019-02-21T07:27:34.973Z,86.23
2019-02-21T07:30:43.074Z,83.57
2019-02-21T07:33:50.856Z,92.37
2019-02-21T07:36:58.649Z,85.50
2019-02-21T07:40:06.407Z,84.50
2019-02-21T07:43:14.108Z,87.33
2019-02-21T07:46:21.833Z,84.67
2019-02-21T07:49:30.170Z,88.77
2019-02-21T07:52:38.158Z,95.33
2019-02-21T07:55:45.793Z,116.80
2019-02-21T07:58:53.361Z,194.47
2019-02-21T08:02:02.284Z,95.30
2019-02-21T08:05:10.361Z,78.23
2019-02-21T08:08:20.861Z,96.10
2019-02-21T08:11:27.889Z,108.07
2019-02-21T08:14:35.626Z,82.43
2019-02-21T08:17:43.323Z,83.37
2019-02-21T08:20:51.089Z,87.53
2019-02-21T08:23:59.484Z,88.00
2019-02-21T08:27:07.481Z,69.70
2019-02-21T08:30:16.524Z,60.20
2019-02-21T08:33:33.233Z,63.73
2019-02-21T08:36:41.029Z,79.30
2019-02-21T08:39:48.939Z,59.37
2019-02-21T08:42:56.717Z,62.23
2019-02-21T08:46:04.520Z,45.20
2019-02-21T08:49:12.126Z,51.03
2019-02-21T08:52:19.716Z,52.67
2019-02-21T08:55:27.269Z,48.13
2019-02-21T08:58:34.859Z,40.27
2019-02-21T09:01:42.541Z,44.03
2019-02-21T09:04:50.157Z,47.63
2019-02-21T09:07:57.757Z,46.90
2019-02-21T09:11:05.355Z,47.40
2019-02-21T09:14:12.993Z,45.33
2019-02-21T09:17:20.625Z,58.27
2019-02-21T09:20:28.322Z,43.33
2019-02-21T09:23:36.011Z,60.33
2019-02-21T09:26:45.280Z,40.77
2019-02-21T09:29:52.956Z,45.37
2019-02-21T09:33:00.643Z,51.93
2019-02-21T09:36:08.319Z,31.77
2019-02-21T09:39:16.749Z,29.90
2019-02-21T09:42:24.501Z,31.50
2019-02-21T09:45:32.920Z,29.33
2019-02-21T09:48:40.625Z,28.00
2019-02-21T09:51:48.230Z,25.23
2019-02-21T09:54:55.766Z,23.83
2019-02-21T09:58:03.394Z,23.83
2019-02-21T10:01:11.301Z,32.90
2019-02-21T10:04:19.006Z,33.07
2019-02-21T10:07:26.533Z,25.20
2019-02-21T10:10:34.522Z,29.83
2019-02-21T10:13:42.220Z,27.77
2019-02-21T10:16:49.794Z,23.87
2019-02-21T10:19:58.356Z,24.20
2019-02-21T10:23:05.884Z,22.33
2019-02-21T10:26:13.505Z,25.93
2019-02-21T10:29:21.159Z,31.50
2019-02-21T10:32:28.841Z,38.57
2019-02-21T10:35:36.471Z,49.50
2019-02-21T10:38:44.125Z,47.60
2019-02-21T10:41:51.799Z,38.33
2019-02-21T10:44:59.439Z,36.00
2019-02-21T10:48:07.568Z,41.07
2019-02-21T10:51:15.169Z,46.93
2019-02-21T10:54:22.755Z,43.93
2019-02-21T10:57:30.318Z,50.03
2019-02-21T11:00:37.907Z,44.17
2019-02-21T11:03:45.570Z,49.87
2019-02-21T11:06:53.331Z,41.97
2019-02-21T11:10:00.989Z,41.63
2019-02-21T11:13:09.237Z,41.53
2019-02-21T11:16:16.854Z,49.93
2019-02-21T11:19:24.493Z,36.17
2019-02-21T11:22:33.305Z,44.23
2019-02-21T11:25:40.955Z,37.30
2019-02-21T11:28:48.451Z,40.80
2019-02-21T11:31:56.073Z,45.73
2019-02-21T11:35:06.644Z,36.27
2019-02-21T11:38:13.057Z,29.83
2019-02-21T11:41:20.641Z,26.97
2019-02-21T11:44:28.220Z,36.97
2019-02-21T11:47:35.942Z,28.87
2019-02-21T11:50:43.595Z,32.37
2019-02-21T11:53:51.381Z,31.43
2019-02-21T11:56:59.071Z,32.20
2019-02-21T12:00:08.639Z,33.13
2019-02-21T12:03:16.402Z,27.30
2019-02-21T12:06:24.031Z,28.13
2019-02-21T12:09:32.219Z,38.27
2019-02-21T12:12:39.739Z,41.07
2019-02-21T12:15:47.385Z,34.63
2019-02-21T12:18:54.934Z,34.53
2019-02-21T12:22:02.647Z,32.30
2019-02-21T12:25:12.050Z,38.23
2019-02-21T12:28:19.666Z,35.63
2019-02-21T12:31:27.235Z,43.47
2019-02-21T12:34:35.227Z,37.17
2019-02-21T12:37:43.058Z,53.20
2019-02-21T12:40:50.601Z,30.43
2019-02-21T12:43:58.592Z,41.13
2019-02-21T12:47:06.118Z,34.53
2019-02-21T12:50:13.773Z,44.33
2019-02-21T12:53:21.459Z,39.10
2019-02-21T12:56:29.123Z,41.13
2019-02-21T12:59:37.847Z,39.90
2019-02-21T13:02:45.806Z,46.77
2019-02-21T13:05:53.569Z,42.73
2019-02-21T13:09:01.248Z,37.77
2019-02-21T13:12:10.431Z,45.03
2019-02-21T13:15:18.049Z,39.00
2019-02-21T13:18:25.701Z,51.80
2019-02-21T13:21:33.437Z,39.90
2019-02-21T13:24:41.033Z,36.73
2019-02-21T13:27:48.677Z,46.43
2019-02-21T13:30:56.548Z,48.40
2019-02-21T13:34:04.433Z,43.80
2019-02-21T13:37:12.015Z,44.97
2019-02-21T13:40:21.250Z,51.97
2019-02-21T13:43:30.187Z,40.37
2019-02-21T13:46:41.085Z,43.43
2019-02-21T13:49:47.224Z,37.60
2019-02-21T13:52:54.825Z,44.13
2019-02-21T13:56:02.486Z,44.43
2019-02-21T13:59:10.400Z,41.10
2019-02-21T14:02:18.027Z,38.20
2019-02-21T14:05:25.731Z,43.50
2019-02-21T14:08:33.574Z,44.20
2019-02-21T14:11:41.216Z,46.20
2019-02-21T14:14:48.722Z,44.83
2019-02-21T14:17:56.358Z,40.20
2019-02-21T14:21:03.965Z,44.37
2019-02-21T14:24:11.570Z,44.70
2019-02-21T14:27:19.258Z,57.47
2019-02-21T14:30:27.010Z,57.43
2019-02-21T14:33:34.711Z,53.57
2019-02-21T14:36:42.540Z,52.73
2019-02-21T14:39:50.389Z,55.13
2019-02-21T14:42:58.059Z,60.77
2019-02-21T14:46:05.767Z,62.80
2019-02-21T14:49:16.564Z,64.13
2019-02-21T14:52:24.314Z,56.40
2019-02-21T14:55:32.024Z,49.57
2019-02-21T14:58:41.455Z,53.43
2019-02-21T15:01:49.182Z,54.37
2019-02-21T15:04:57.948Z,60.00
2019-02-21T15:08:07.446Z,64.57
2019-02-21T15:11:15.082Z,66.07
2019-02-21T15:14:23.082Z,66.70
2019-02-21T15:17:30.713Z,68.97
2019-02-21T15:20:38.478Z,79.53
2019-02-21T15:23:46.578Z,79.23
2019-02-21T15:26:54.358Z,70.67
2019-02-21T15:30:03.250Z,75.33
2019-02-21T15:33:11.017Z,84.43
2019-02-21T15:36:18.579Z,138.37
2019-02-21T15:39:26.308Z,61.80
2019-02-21T15:42:34.030Z,94.23
2019-02-21T15:45:43.078Z,69.47
2019-02-21T15:48:50.721Z,75.93
2019-02-21T15:51:58.648Z,59.77
2019-02-21T15:55:12.494Z,41.93
2019-02-21T15:58:16.380Z,40.53
2019-02-21T16:01:25.379Z,54.87
2019-02-21T16:04:35.348Z,42.77
2019-02-21T16:07:43.843Z,58.83
2019-02-21T16:10:51.695Z,49.30
2019-02-21T16:14:03.355Z,63.80
2019-02-21T16:17:08.968Z,61.20
2019-02-21T16:20:17.189Z,65.23
2019-02-21T16:23:24.873Z,59.73
2019-02-21T16:26:34.469Z,55.70
2019-02-21T16:29:42.238Z,59.50
2019-02-21T16:32:49.875Z,58.17
2019-02-21T16:35:57.458Z,64.03
2019-02-21T16:39:05.941Z,77.13
2019-02-21T16:42:15.087Z,53.83
2019-02-21T16:45:22.710Z,56.30
2019-02-21T16:48:30.553Z,58.73
2019-02-21T16:51:38.643Z,49.43
2019-02-21T16:54:46.987Z,54.70
2019-02-21T16:57:54.661Z,52.20
2019-02-21T17:01:02.313Z,50.97
2019-02-21T17:04:09.982Z,53.97
2019-02-21T17:07:20.149Z,69.60
2019-02-21T17:10:27.035Z,50.03
2019-02-21T17:13:34.783Z,46.23
2019-02-21T17:16:42.375Z,41.77
2019-02-21T17:19:49.950Z,41.23
2019-02-21T17:22:57.495Z,62.53
2019-02-21T17:26:05.520Z,55.30
2019-02-21T17:29:13.365Z,54.37
2019-02-21T17:32:20.964Z,77.93
2019-02-21T17:35:28.570Z,73.17
2019-02-21T17:38:36.375Z,66.47
2019-02-21T17:41:44.762Z,54.33
2019-02-21T17:44:52.512Z,56.33
2019-02-21T17:48:00.027Z,69.47
2019-02-21T17:51:08.654Z,60.33
2019-02-21T17:54:16.422Z,55.90
2019-02-21T17:57:23.975Z,62.33
2019-02-21T18:00:34.928Z,67.40
2019-02-21T18:03:42.544Z,63.33
2019-02-21T18:06:50.939Z,79.27
2019-02-21T18:09:59.743Z,96.80
2019-02-21T18:13:07.316Z,96.63
2019-02-21T18:16:15.670Z,100.07
2019-02-21T18:19:23.288Z,99.70
2019-02-21T18:22:31.044Z,95.20
2019-02-21T18:25:45.164Z,61.70
2019-02-21T18:28:53.410Z,101.20
2019-02-21T18:32:02.585Z,93.90
2019-02-21T18:35:11.510Z,97.50
2019-02-21T18:38:19.130Z,100.90
2019-02-21T18:41:26.912Z,136.97
2019-02-21T18:44:34.613Z,106.50
2019-02-21T18:47:42.339Z,93.30
2019-02-21T18:50:50.103Z,73.13
2019-02-21T18:53:57.877Z,86.00
2019-02-21T18:57:05.634Z,109.80
2019-02-21T19:00:18.037Z,109.07
2019-02-21T19:03:26.103Z,97.40
2019-02-21T19:06:33.750Z,90.70
2019-02-21T19:09:41.413Z,111.17
2019-02-21T19:12:49.296Z,132.67
2019-02-21T19:15:57.352Z,119.47
2019-02-21T19:19:04.970Z,115.43
2019-02-21T19:22:14.909Z,108.83
2019-02-21T19:25:22.700Z,111.37
2019-02-21T19:28:30.380Z,114.33
2019-02-21T19:31:38.174Z,125.97
2019-02-21T19:34:46.225Z,93.30
2019-02-21T19:37:53.836Z,95.27
2019-02-21T19:41:01.495Z,112.77
2019-02-21T19:44:09.480Z,104.10
2019-02-21T19:47:17.386Z,94.77
2019-02-21T19:50:25.346Z,97.60
2019-02-21T19:53:32.860Z,115.23
2019-02-21T19:56:40.885Z,155.03
2019-02-21T19:59:48.395Z,126.40
2019-02-21T20:02:56.498Z,99.37
2019-02-21T20:06:04.506Z,120.80
2019-02-21T20:09:14.464Z,139.07
2019-02-21T20:12:22.207Z,145.27
2019-02-21T20:15:30.208Z,107.53
2019-02-21T20:18:37.957Z,132.10
2019-02-21T20:21:45.596Z,156.13
2019-02-21T20:24:53.246Z,118.87
2019-02-21T20:28:00.885Z,114.17
2019-02-21T20:31:08.761Z,115.60
2019-02-21T20:34:16.649Z,118.83
2019-02-21T20:37:24.490Z,135.43
2019-02-21T20:40:32.199Z,132.03
2019-02-21T20:43:39.894Z,123.33
2019-02-21T20:46:47.488Z,151.77
2019-02-21T20:49:55.419Z,135.90
2019-02-21T20:53:03.093Z,130.43
2019-02-21T20:56:10.615Z,125.77
2019-02-21T20:59:18.228Z,158.97
2019-02-21T21:02:25.840Z,153.77
2019-02-21T21:05:33.444Z,138.90
2019-02-21T21:08:44.319Z,134.97
2019-02-21T21:11:50.714Z,125.70
2019-02-21T21:14:58.339Z,123.10
2019-02-21T21:18:06.112Z,141.47
2019-02-21T21:21:13.614Z,145.60
2019-02-21T21:24:21.196Z,146.50
2019-02-21T21:27:29.800Z,172.43
2019-02-21T21:30:37.495Z,167.70
2019-02-21T21:33:45.410Z,168.27
2019-02-21T21:36:52.936Z,182.30
2019-02-21T21:40:00.501Z,155.30
2019-02-21T21:43:08.200Z,169.47
2019-02-21T21:46:15.860Z,170.17
2019-02-21T21:49:23.525Z,172.73
2019-02-21T21:52:31.234Z,208.57
2019-02-21T21:55:38.780Z,164.13
2019-02-21T21:58:46.706Z,120.93
2019-02-21T22:01:54.203Z,126.13
2019-02-21T22:05:01.753Z,113.77
2019-02-21T22:08:09.673Z,109.03
2019-02-21T22:11:17.445Z,99.87
2019-02-21T22:14:25.512Z,91.63
2019-02-21T22:17:33.400Z,90.17
2019-02-21T22:20:41.263Z,101.27
2019-02-21T22:23:49.194Z,82.33
2019-02-21T22:26:57.148Z,89.60
2019-02-21T22:30:05.113Z,80.07
2019-02-21T22:33:13.060Z,86.60
2019-02-21T22:36:20.887Z,84.40
2019-02-21T22:39:28.784Z,82.93
2019-02-21T22:42:36.787Z,78.37
2019-02-21T22:45:44.641Z,83.97
2019-02-21T22:48:52.585Z,78.30
2019-02-21T22:52:00.425Z,76.53
2019-02-21T22:55:10.173Z,77.83
2019-02-21T22:58:17.699Z,81.53
2019-02-21T23:01:47.797Z,85.90
2019-02-21T23:05:21.875Z,102.13
2019-02-21T23:08:53.592Z,91.67
2019-02-21T23:12:02.559Z,79.90
2019-02-21T23:15:12.235Z,83.57
2019-02-21T23:18:20.629Z,87.10
2019-02-21T23:21:28.424Z,94.83
2019-02-21T23:24:36.209Z,74.70
2019-02-21T23:27:44.045Z,83.87
2019-02-21T23:30:51.826Z,91.57
2019-02-21T23:34:00.595Z,67.63
2019-02-21T23:37:08.834Z,66.60
2019-02-21T23:40:16.619Z,82.80
2019-02-21T23:43:24.484Z,70.17
2019-02-21T23:46:32.302Z,64.83
2019-02-21T23:49:41.361Z,81.93
2019-02-21T23:52:49.192Z,74.50
2019-02-21T23:55:56.967Z,79.80
2019-02-21T23:59:04.841Z,68.93
